Time;durP1;ratioP1;P1;durP2;ratioP2;P2;SDS_P1;SDS_P2;PMS_P1;PMS_P2;Temp;Humidity;BMP_temperature;BMP_pressure;BME280_temperature;BME280_humidity;BME280_pressure;Samples;Min_cycle;Max_cycle;Signal;HPM_P1;HPM_P2
2021/06/18 00:00:27;;;;;;;4.47;2.58;;;25.10;71.70;25.00;99177.00;;;;344725;28;82456;-96
2021/06/18 00:00:39;;;;;;;4.70;2.80;;;25.10;71.50;24.90;99172.00;;;;340123;28;91843;-94
2021/06/18 00:00:51;;;;;;;4.57;3.20;;;25.10;71.50;24.80;99167.00;;;;340629;28;82504;-96
2021/06/18 00:01:03;;;;;;;4.35;3.25;;;25.10;71.40;24.90;99166.00;;;;342853;28;91476;-95
2021/06/18 00:01:15;;;;;;;4.70;3.17;;;25.10;71.40;24.80;99173.00;;;;341885;28;82587;-95
2021/06/18 00:01:27;;;;;;;4.32;2.85;;;25.10;71.30;24.90;99169.00;;;;341442;28;88981;-95
2021/06/18 00:01:39;;;;;;;3.53;2.80;;;25.10;71.40;24.90;99168.00;;;;341661;28;84260;-94
2021/06/18 00:01:51;;;;;;;3.45;2.80;;;25.10;71.30;24.80;99164.00;;;;342208;28;91875;-95
2021/06/18 00:02:03;;;;;;;3.55;2.92;;;25.10;71.20;24.90;99166.00;;;;340462;28;83007;-96
2021/06/18 00:02:15;;;;;;;4.47;3.08;;;25.10;71.10;24.80;99167.00;;;;343226;28;88618;-95
2021/06/18 00:02:27;;;;;;;4.32;2.97;;;25.10;71.20;24.80;99161.00;;;;341717;28;83411;-95
2021/06/18 00:02:39;;;;;;;4.35;2.75;;;25.10;71.10;24.80;99167.00;;;;340264;28;89569;-94
2021/06/18 00:02:51;;;;;;;3.35;2.58;;;25.10;71.00;24.90;99162.00;;;;340666;28;82383;-96
2021/06/18 00:03:04;;;;;;;3.20;2.67;;;25.10;71.00;24.80;99170.00;;;;341354;28;90378;-95
2021/06/18 00:03:16;;;;;;;5.88;2.85;;;25.10;71.00;24.80;99163.00;;;;341954;28;82464;-95
2021/06/18 00:03:27;;;;;;;7.18;3.05;;;25.10;71.00;24.80;99163.00;;;;340172;28;88930;-95
2021/06/18 00:03:39;;;;;;;6.18;3.00;;;25.10;70.90;25.00;99169.00;;;;341952;28;82410;-95
2021/06/18 00:03:51;;;;;;;2.88;2.53;;;25.20;70.90;25.00;99163.00;;;;341489;28;87514;-95
2021/06/18 00:04:03;;;;;;;4.50;2.90;;;25.20;70.90;25.00;99163.00;;;;343165;28;83650;-94
2021/06/18 00:04:15;;;;;;;4.63;3.00;;;25.10;70.90;24.90;99163.00;;;;339991;28;91180;-95
2021/06/18 00:04:27;;;;;;;3.70;2.97;;;25.20;70.90;24.90;99162.00;;;;341984;28;82336;-95
2021/06/18 00:04:39;;;;;;;3.78;2.78;;;25.20;70.90;24.90;99162.00;;;;339662;28;91248;-94
2021/06/18 00:04:51;;;;;;;5.40;2.78;;;25.10;70.90;24.80;99161.00;;;;339874;28;82451;-95
2021/06/18 00:05:04;;;;;;;5.60;2.85;;;25.20;71.00;24.80;99161.00;;;;340263;28;89843;-95
2021/06/18 00:05:16;;;;;;;5.38;3.30;;;25.10;70.90;25.00;99156.00;;;;338886;28;82554;-92
2021/06/18 00:05:28;;;;;;;5.03;3.47;;;25.10;70.90;25.00;99161.00;;;;338504;28;93168;-94
2021/06/18 00:05:40;;;;;;;5.15;3.00;;;25.20;70.90;24.90;99159.00;;;;340477;28;82571;-95
2021/06/18 00:05:52;;;;;;;4.50;2.88;;;25.20;70.90;25.00;99164.00;;;;341589;28;88277;-96
2021/06/18 00:06:04;;;;;;;3.90;2.90;;;25.20;70.90;24.90;99159.00;;;;340517;28;83620;-95
2021/06/18 00:06:16;;;;;;;3.00;2.65;;;25.20;70.90;24.80;99155.00;;;;336209;28;88422;-95
2021/06/18 00:06:28;;;;;;;3.67;2.78;;;25.20;70.90;24.80;99163.00;;;;341956;28;82236;-94
2021/06/18 00:06:40;;;;;;;5.07;3.05;;;25.20;71.00;24.80;99162.00;;;;341567;28;88701;-96
2021/06/18 00:06:52;;;;;;;5.57;3.30;;;25.20;70.90;24.90;99158.00;;;;343038;28;83363;-96
2021/06/18 00:07:04;;;;;;;4.97;3.30;;;25.20;70.90;24.90;99156.00;;;;338767;28;91183;-96
2021/06/18 00:07:16;;;;;;;4.13;3.10;;;25.20;70.80;24.80;99157.00;;;;340532;28;84322;-95
2021/06/18 00:07:28;;;;;;;3.30;2.97;;;25.20;70.80;24.90;99160.00;;;;338740;28;92719;-93
2021/06/18 00:07:43;;;;;;;4.18;3.13;;;25.20;71.00;24.80;99153.00;;;;338984;28;83709;-96
2021/06/18 00:07:55;;;;;;;5.15;3.45;;;25.20;70.90;25.00;99163.00;;;;338599;28;91756;-95
2021/06/18 00:08:07;;;;;;;4.40;3.25;;;25.20;70.90;24.90;99161.00;;;;340411;28;85442;-95
2021/06/18 00:08:19;;;;;;;3.45;3.15;;;25.20;71.00;24.80;99163.00;;;;340098;28;87995;-92
2021/06/18 00:08:31;;;;;;;3.78;3.08;;;25.20;71.00;24.90;99165.00;;;;340659;28;83366;-95
2021/06/18 00:08:43;;;;;;;4.55;3.17;;;25.20;71.00;24.90;99155.00;;;;342704;28;91538;-96
2021/06/18 00:08:55;;;;;;;4.38;3.08;;;25.20;71.00;24.80;99159.00;;;;337650;28;83367;-95
2021/06/18 00:09:08;;;;;;;5.53;3.15;;;25.20;70.90;24.70;99151.00;;;;341317;28;90567;-92
2021/06/18 00:09:20;;;;;;;5.82;2.90;;;25.20;71.00;24.70;99158.00;;;;344273;28;85584;-95
2021/06/18 00:09:32;;;;;;;4.15;2.80;;;25.20;70.90;24.70;99150.00;;;;341437;28;92704;-96
2021/06/18 00:09:43;;;;;;;4.10;2.80;;;25.10;70.90;24.80;99161.00;;;;344479;28;82861;-94
2021/06/18 00:09:55;;;;;;;4.40;2.60;;;25.10;70.90;24.80;99156.00;;;;341570;28;88949;-95
2021/06/18 00:10:08;;;;;;;4.10;2.75;;;25.10;70.90;24.90;99155.00;;;;341836;28;83390;-93
2021/06/18 00:10:24;;;;;;;4.00;3.03;;;25.10;71.00;24.80;99154.00;;;;341446;28;90107;-94
2021/06/18 00:10:35;;;;;;;4.43;2.97;;;25.20;71.60;24.80;99164.00;;;;343253;28;82508;-94
2021/06/18 00:10:47;;;;;;;5.97;3.05;;;25.10;71.00;24.70;99161.00;;;;339734;28;91689;-96
2021/06/18 00:10:59;;;;;;;6.47;3.05;;;25.10;71.00;24.70;99159.00;;;;340193;28;83459;-94
2021/06/18 00:11:11;;;;;;;6.22;2.92;;;25.10;71.00;24.70;99159.00;;;;340941;28;92894;-95
2021/06/18 00:11:23;;;;;;;5.75;2.67;;;25.10;71.00;24.80;99157.00;;;;343197;28;82677;-95
2021/06/18 00:11:35;;;;;;;4.70;2.45;;;25.10;70.90;24.80;99156.00;;;;344142;28;93182;-95
2021/06/18 00:11:47;;;;;;;4.75;2.55;;;25.10;71.00;24.90;99153.00;;;;340448;28;82717;-96
2021/06/18 00:11:59;;;;;;;4.10;2.78;;;25.10;71.00;24.90;99157.00;;;;341480;28;88460;-94
2021/06/18 00:12:11;;;;;;;4.22;3.00;;;25.10;71.00;24.80;99157.00;;;;342992;28;82954;-95
2021/06/18 00:12:23;;;;;;;4.45;3.03;;;25.10;71.00;24.90;99148.00;;;;339920;28;91491;-95
2021/06/18 00:12:35;;;;;;;6.95;3.20;;;25.10;71.00;24.90;99151.00;;;;341952;28;83382;-96
2021/06/18 00:12:47;;;;;;;7.07;3.15;;;25.10;71.00;24.80;99151.00;;;;345575;28;91205;-96
2021/06/18 00:12:59;;;;;;;5.53;2.90;;;25.10;71.10;24.90;99158.00;;;;341756;28;82447;-93
2021/06/18 00:13:10;;;;;;;4.70;2.88;;;25.10;71.00;24.80;99155.00;;;;340079;28;91212;-95
2021/06/18 00:13:22;;;;;;;3.90;2.53;;;25.10;70.90;24.90;99157.00;;;;340546;28;82617;-96
2021/06/18 00:13:34;;;;;;;3.92;2.53;;;25.10;70.80;24.80;99153.00;;;;341361;28;91130;-96
2021/06/18 00:13:46;;;;;;;3.42;2.42;;;25.20;70.80;25.00;99154.00;;;;338165;28;82586;-95
2021/06/18 00:13:58;;;;;;;3.30;3.00;;;25.10;71.00;24.90;99153.00;;;;340514;28;88473;-95
2021/06/18 00:14:10;;;;;;;3.10;2.80;;;25.20;70.60;24.80;99147.00;;;;342068;28;83169;-94
2021/06/18 00:14:22;;;;;;;2.80;2.45;;;25.20;70.50;24.80;99159.00;;;;341378;28;91444;-96
2021/06/18 00:14:34;;;;;;;3.22;2.35;;;25.10;70.20;24.80;99157.00;;;;341930;28;82281;-96
2021/06/18 00:14:45;;;;;;;4.03;2.50;;;25.10;70.10;24.80;99152.00;;;;340091;28;91487;-95
2021/06/18 00:14:59;;;;;;;4.15;2.33;;;25.20;70.10;24.80;99152.00;;;;341505;28;82957;-95
2021/06/18 00:15:12;;;;;;;4.03;2.83;;;25.10;70.00;25.00;99165.00;;;;338853;28;89584;-95
2021/06/18 00:15:24;;;;;;;3.78;3.00;;;25.20;70.10;24.90;99155.00;;;;339183;28;82445;-96
2021/06/18 00:15:36;;;;;;;3.40;2.58;;;25.20;70.00;25.00;99153.00;;;;340103;28;89565;-95
2021/06/18 00:15:48;;;;;;;3.90;2.55;;;25.20;70.10;25.00;99161.00;;;;340549;28;82450;-94
2021/06/18 00:16:01;;;;;;;3.83;2.50;;;25.20;70.10;25.10;99159.00;;;;340114;28;87524;-95
2021/06/18 00:16:13;;;;;;;4.07;2.50;;;25.20;70.10;25.00;99160.00;;;;340474;28;82419;-96
2021/06/18 00:16:24;;;;;;;4.93;2.55;;;25.20;70.70;25.00;99160.00;;;;337372;28;89953;-96
2021/06/18 00:16:36;;;;;;;4.88;2.50;;;25.20;70.00;25.00;99158.00;;;;340483;28;84253;-96
2021/06/18 00:16:49;;;;;;;3.97;2.15;;;25.20;70.00;24.90;99155.00;;;;341050;28;89837;-92
2021/06/18 00:17:01;;;;;;;3.03;2.42;;;25.20;70.00;25.00;99155.00;;;;343071;28;83384;-95
2021/06/18 00:17:13;;;;;;;3.38;2.83;;;25.20;70.00;25.00;99157.00;;;;340990;28;91585;-91
2021/06/18 00:17:25;;;;;;;4.35;3.00;;;25.20;70.00;24.90;99157.00;;;;339119;28;83397;-96
2021/06/18 00:17:37;;;;;;;4.65;3.03;;;25.20;70.00;24.90;99159.00;;;;338620;28;92059;-96
2021/06/18 00:17:50;;;;;;;4.35;3.00;;;25.20;70.00;25.00;99161.00;;;;340437;28;82534;-96
2021/06/18 00:18:02;;;;;;;3.35;2.92;;;25.20;70.10;25.00;99159.00;;;;342825;28;91291;-96
2021/06/18 00:18:14;;;;;;;3.10;2.80;;;25.20;70.00;25.00;99167.00;;;;343139;28;84148;-93
2021/06/18 00:18:26;;;;;;;3.38;2.90;;;25.20;69.90;25.00;99167.00;;;;341716;28;87391;-94
2021/06/18 00:18:39;;;;;;;3.50;2.75;;;25.20;69.90;25.10;99164.00;;;;344635;28;84058;-96
2021/06/18 00:18:51;;;;;;;3.78;2.75;;;25.20;70.00;25.00;99163.00;;;;342848;28;91584;-96
2021/06/18 00:19:03;;;;;;;2.90;2.50;;;25.20;69.90;25.00;99160.00;;;;344663;28;82381;-95
2021/06/18 00:19:14;;;;;;;3.08;2.40;;;25.20;69.90;25.10;99159.00;;;;341492;28;89135;-94
2021/06/18 00:19:26;;;;;;;3.17;2.30;;;25.20;69.90;25.10;99159.00;;;;340569;28;82324;-96
2021/06/18 00:19:38;;;;;;;3.72;2.22;;;25.30;70.10;25.10;99161.00;;;;342734;28;89723;-93
2021/06/18 00:19:50;;;;;;;3.80;2.33;;;25.30;70.00;25.00;99161.00;;;;341314;28;83471;-96
2021/06/18 00:20:04;;;;;;;3.63;2.53;;;25.20;69.80;25.00;99165.00;;;;342854;28;88658;-96
2021/06/18 00:20:16;;;;;;;3.75;2.72;;;25.20;69.90;25.10;99159.00;;;;341847;28;84064;-94
2021/06/18 00:20:29;;;;;;;5.07;2.55;;;25.30;70.00;25.10;99166.00;;;;342864;28;87981;-93
2021/06/18 00:20:41;;;;;;;4.97;2.15;;;25.30;69.90;25.10;99161.00;;;;343214;28;82346;-94
2021/06/18 00:20:53;;;;;;;6.20;2.60;;;25.30;70.00;25.10;99161.00;;;;339971;28;89898;-95
2021/06/18 00:21:05;;;;;;;4.70;2.70;;;25.30;69.80;25.10;99165.00;;;;339274;28;82337;-96
2021/06/18 00:21:16;;;;;;;3.55;2.72;;;25.30;69.90;25.00;99161.00;;;;340151;28;90174;-93
2021/06/18 00:21:29;;;;;;;2.90;2.30;;;25.30;69.90;25.00;99168.00;;;;340521;28;82412;-95
2021/06/18 00:21:41;;;;;;;3.05;2.50;;;25.30;69.90;25.10;99168.00;;;;338816;28;90927;-95
2021/06/18 00:21:52;;;;;;;3.00;2.53;;;25.30;70.00;25.20;99164.00;;;;341977;28;82356;-95
2021/06/18 00:22:04;;;;;;;3.47;2.80;;;25.30;70.00;25.10;99160.00;;;;341601;28;89101;-96
2021/06/18 00:22:16;;;;;;;4.40;2.60;;;25.30;70.00;25.00;99160.00;;;;340332;28;82674;-96
2021/06/18 00:22:28;;;;;;;4.32;2.55;;;25.30;69.90;25.00;99160.00;;;;342991;28;88324;-95
2021/06/18 00:22:40;;;;;;;4.38;2.83;;;25.30;69.80;24.90;99164.00;;;;342515;28;83601;-93
2021/06/18 00:22:52;;;;;;;3.92;2.70;;;25.30;69.80;24.90;99154.00;;;;343755;28;88414;-96
2021/06/18 00:23:04;;;;;;;6.65;2.60;;;25.30;69.80;24.90;99157.00;;;;341626;28;84346;-95
2021/06/18 00:23:16;;;;;;;7.13;2.92;;;25.30;70.00;24.90;99162.00;;;;342582;28;89763;-95
2021/06/18 00:23:28;;;;;;;6.30;3.45;;;25.30;70.10;24.90;99157.00;;;;343226;28;84295;-95
2021/06/18 00:23:39;;;;;;;5.55;3.40;;;25.20;69.70;24.80;99163.00;;;;342915;28;89300;-95
2021/06/18 00:23:51;;;;;;;4.15;2.92;;;25.20;69.60;24.90;99153.00;;;;341955;28;82741;-95
2021/06/18 00:24:04;;;;;;;4.07;2.58;;;25.20;69.50;25.00;99154.00;;;;341496;28;92286;-95
2021/06/18 00:24:16;;;;;;;3.67;2.47;;;25.20;69.60;25.00;99157.00;;;;344617;28;82351;-94
2021/06/18 00:24:28;;;;;;;3.72;2.40;;;25.20;69.90;25.00;99157.00;;;;341494;28;89103;-95
2021/06/18 00:24:39;;;;;;;2.97;2.10;;;25.20;69.90;25.00;99152.00;;;;341835;28;84370;-94
2021/06/18 00:24:53;;;;;;;3.78;2.42;;;25.20;69.90;25.00;99154.00;;;;344204;28;91748;-94
2021/06/18 00:25:05;;;;;;;3.67;2.38;;;25.20;69.80;25.00;99152.00;;;;341785;28;84278;-92
2021/06/18 00:25:17;;;;;;;3.58;2.30;;;25.30;69.90;25.00;99142.00;;;;337536;28;89844;-93
2021/06/18 00:25:29;;;;;;;3.22;2.30;;;25.30;69.90;25.00;99151.00;;;;340613;28;83584;-94
2021/06/18 00:25:43;;;;;;;2.95;2.45;;;25.20;69.70;25.00;99152.00;;;;337058;28;91186;-95
2021/06/18 00:25:54;;;;;;;3.15;2.35;;;25.30;69.80;25.00;99156.00;;;;340756;28;82339;-94
2021/06/18 00:26:06;;;;;;;3.55;2.92;;;25.20;69.70;25.00;99156.00;;;;341408;28;90426;-94
2021/06/18 00:26:18;;;;;;;3.50;3.00;;;25.20;69.60;25.00;99152.00;;;;340452;28;84330;-94
2021/06/18 00:26:30;;;;;;;3.63;2.70;;;25.30;70.40;25.00;99158.00;;;;343131;28;88251;-95
2021/06/18 00:26:42;;;;;;;3.83;2.13;;;25.30;69.80;25.10;99157.00;;;;339576;28;83618;-95
2021/06/18 00:26:54;;;;;;;6.63;2.35;;;25.30;70.00;25.00;99154.00;;;;343274;28;88546;-95
2021/06/18 00:27:06;;;;;;;6.32;2.58;;;25.30;69.90;25.00;99148.00;;;;343518;28;82691;-96
2021/06/18 00:27:18;;;;;;;12.85;3.03;;;25.30;69.80;24.90;99152.00;;;;341904;28;91837;-95
2021/06/18 00:27:29;;;;;;;11.00;2.63;;;25.30;69.80;24.90;99147.00;;;;342323;28;82824;-96
2021/06/18 00:27:41;;;;;;;10.27;2.60;;;25.30;69.80;24.90;99156.00;;;;341708;28;92552;-95
2021/06/18 00:27:56;;;;;;;4.72;2.42;;;25.30;69.80;24.80;99149.00;;;;340795;28;84245;-95
2021/06/18 00:28:08;;;;;;;3.80;2.42;;;25.30;69.90;25.00;99151.00;;;;339146;28;88583;-94
2021/06/18 00:28:19;;;;;;;3.63;2.30;;;25.30;69.90;25.00;99147.00;;;;339534;28;82737;-95
2021/06/18 00:28:31;;;;;;;3.60;2.60;;;25.30;69.90;25.00;99146.00;;;;340542;28;90066;-95
2021/06/18 00:28:43;;;;;;;3.75;2.72;;;25.30;69.80;25.00;99152.00;;;;341808;28;85547;-95
2021/06/18 00:28:55;;;;;;;4.00;2.88;;;25.30;69.90;25.00;99153.00;;;;343371;28;89162;-95
2021/06/18 00:29:07;;;;;;;3.95;2.50;;;25.30;69.90;25.00;99145.00;;;;340718;28;83361;-95
2021/06/18 00:29:18;;;;;;;3.90;2.50;;;25.30;69.80;24.90;99150.00;;;;341943;28;90016;-96
2021/06/18 00:29:30;;;;;;;4.68;3.08;;;25.30;69.80;24.80;99143.00;;;;340919;28;82716;-94
2021/06/18 00:29:42;;;;;;;4.60;3.22;;;25.30;69.80;24.80;99150.00;;;;343293;28;92496;-95
2021/06/18 00:29:55;;;;;;;3.97;3.20;;;25.30;69.70;24.90;99146.00;;;;341779;28;82672;-95
2021/06/18 00:30:09;;;;;;;3.70;3.00;;;25.30;69.80;24.80;99137.00;;;;344630;28;88252;-94
2021/06/18 00:30:22;;;;;;;4.35;2.88;;;25.30;69.80;24.90;99150.00;;;;344777;28;82724;-95
2021/06/18 00:30:34;;;;;;;4.07;2.70;;;25.30;69.70;25.00;99149.00;;;;343287;28;88287;-95
2021/06/18 00:30:45;;;;;;;3.60;2.60;;;25.30;69.80;24.90;99145.00;;;;343549;28;82266;-95
2021/06/18 00:31:01;;;;;;;3.10;2.42;;;25.30;69.80;24.80;99153.00;;;;340593;28;88601;-95
2021/06/18 00:31:13;;;;;;;3.55;2.50;;;25.30;69.80;24.80;99150.00;;;;340837;28;83402;-95
2021/06/18 00:31:24;;;;;;;3.70;2.30;;;25.20;69.80;24.80;99145.00;;;;343356;28;88653;-94
2021/06/18 00:31:36;;;;;;;4.43;2.50;;;25.20;69.60;24.80;99152.00;;;;343634;28;82604;-95
2021/06/18 00:31:48;;;;;;;4.82;2.72;;;25.20;69.70;24.90;99152.00;;;;339636;28;88977;-95
2021/06/18 00:32:00;;;;;;;5.40;2.80;;;25.30;69.90;24.90;99151.00;;;;342037;28;83064;-95
2021/06/18 00:32:12;;;;;;;4.25;2.45;;;25.20;69.70;24.90;99143.00;;;;342260;28;91758;-95
2021/06/18 00:32:24;;;;;;;4.28;2.20;;;25.20;69.70;24.90;99155.00;;;;340689;28;82378;-95
2021/06/18 00:32:37;;;;;;;4.25;2.35;;;25.20;69.80;24.80;99145.00;;;;340337;28;89542;-95
2021/06/18 00:32:48;;;;;;;4.70;2.65;;;25.20;69.90;24.80;99142.00;;;;342150;28;82467;-95
2021/06/18 00:33:00;;;;;;;3.33;2.22;;;25.20;69.90;24.80;99145.00;;;;341931;28;88083;-92
2021/06/18 00:33:14;;;;;;;3.75;2.40;;;25.20;69.90;24.80;99147.00;;;;343171;28;85519;-96
2021/06/18 00:33:26;;;;;;;3.92;2.47;;;25.20;69.90;24.80;99146.00;;;;341649;28;89738;-95
2021/06/18 00:33:38;;;;;;;3.95;2.63;;;25.20;69.90;24.80;99146.00;;;;341877;28;83401;-95
2021/06/18 00:33:50;;;;;;;4.55;2.60;;;25.20;69.90;24.80;99143.00;;;;342993;28;89616;-93
2021/06/18 00:34:02;;;;;;;7.07;2.58;;;25.20;69.90;24.80;99147.00;;;;342015;28;82428;-95
2021/06/18 00:34:13;;;;;;;8.63;2.85;;;25.20;70.00;24.80;99142.00;;;;342810;28;88321;-96
2021/06/18 00:34:25;;;;;;;4.50;2.80;;;25.20;69.90;24.70;99151.00;;;;337814;28;83494;-93
2021/06/18 00:34:37;;;;;;;3.65;2.60;;;25.20;70.00;24.80;99140.00;;;;341523;28;88313;-95
2021/06/18 00:34:49;;;;;;;3.20;2.55;;;25.20;70.00;24.80;99145.00;;;;341228;28;83578;-95
2021/06/18 00:35:00;;;;;;;3.53;2.63;;;25.20;70.00;24.90;99146.00;;;;342643;28;89515;-95
2021/06/18 00:35:13;;;;;;;3.67;2.65;;;25.20;70.60;24.90;99142.00;;;;342535;28;82354;-92
2021/06/18 00:35:24;;;;;;;3.25;2.60;;;25.20;69.90;24.80;99147.00;;;;340268;28;87981;-95
2021/06/18 00:35:36;;;;;;;3.38;2.80;;;25.20;69.90;24.90;99144.00;;;;341496;28;83670;-94
2021/06/18 00:35:48;;;;;;;2.78;2.53;;;25.20;69.90;24.80;99140.00;;;;339680;28;90626;-96
2021/06/18 00:36:00;;;;;;;3.28;2.67;;;25.20;69.80;24.90;99145.00;;;;341655;28;82344;-96
2021/06/18 00:36:12;;;;;;;4.88;2.67;;;25.20;69.90;24.90;99143.00;;;;343054;28;89799;-95
2021/06/18 00:36:24;;;;;;;5.25;2.90;;;25.20;69.90;24.90;99148.00;;;;340805;28;82476;-95
2021/06/18 00:36:35;;;;;;;4.82;2.55;;;25.20;69.80;24.80;99149.00;;;;341452;28;89808;-93
2021/06/18 00:36:47;;;;;;;3.08;2.25;;;25.20;69.80;24.90;99146.00;;;;343212;28;83424;-94
2021/06/18 00:36:59;;;;;;;3.97;2.95;;;25.20;69.80;24.90;99143.00;;;;343042;28;88386;-94
2021/06/18 00:37:11;;;;;;;4.05;3.25;;;25.20;69.80;24.90;99144.00;;;;340700;28;82332;-94
2021/06/18 00:37:24;;;;;;;3.58;2.78;;;25.20;69.90;24.90;99143.00;;;;342782;28;91386;-95
2021/06/18 00:37:36;;;;;;;3.83;2.53;;;25.20;69.90;24.90;99151.00;;;;341940;28;82380;-94
2021/06/18 00:37:48;;;;;;;4.53;2.45;;;25.20;69.90;24.80;99150.00;;;;343890;28;90523;-95
2021/06/18 00:38:00;;;;;;;3.65;2.25;;;25.20;69.80;24.80;99147.00;;;;340890;28;82406;-93
2021/06/18 00:38:12;;;;;;;3.38;2.30;;;25.20;69.90;25.00;99143.00;;;;343922;28;88114;-95
2021/06/18 00:38:23;;;;;;;3.70;2.92;;;25.20;69.90;25.00;99143.00;;;;340750;28;83380;-93
2021/06/18 00:38:36;;;;;;;4.13;2.72;;;25.20;69.90;24.90;99138.00;;;;338144;28;90548;-95
2021/06/18 00:38:48;;;;;;;4.43;2.30;;;25.20;69.80;24.90;99139.00;;;;341114;28;82514;-92
2021/06/18 00:38:59;;;;;;;4.25;2.13;;;25.20;69.90;24.90;99142.00;;;;337837;28;88456;-95
2021/06/18 00:39:11;;;;;;;3.55;2.28;;;25.30;69.90;25.00;99130.00;;;;342264;28;83345;-92
2021/06/18 00:39:23;;;;;;;4.63;2.58;;;25.30;70.00;25.00;99145.00;;;;341738;28;91490;-95
2021/06/18 00:39:35;;;;;;;7.30;2.70;;;25.30;69.90;24.90;99143.00;;;;345050;28;83274;-95
2021/06/18 00:39:46;;;;;;;7.38;2.75;;;25.20;69.80;24.90;99146.00;;;;342811;28;91381;-96
2021/06/18 00:39:58;;;;;;;6.43;2.38;;;25.30;69.80;25.00;99145.00;;;;340561;28;82390;-96
2021/06/18 00:40:10;;;;;;;4.78;2.40;;;25.20;69.90;25.00;99143.00;;;;341503;28;90602;-94
2021/06/18 00:40:23;;;;;;;4.97;2.60;;;25.20;69.90;25.00;99144.00;;;;340437;28;82497;-94
2021/06/18 00:40:35;;;;;;;3.13;2.35;;;25.20;69.80;25.10;99144.00;;;;340148;28;88263;-95
2021/06/18 00:40:47;;;;;;;4.18;2.30;;;25.20;69.90;25.10;99146.00;;;;343466;28;82520;-94
2021/06/18 00:40:59;;;;;;;4.53;2.33;;;25.30;69.80;25.10;99142.00;;;;339929;28;88670;-95
2021/06/18 00:41:11;;;;;;;4.35;2.55;;;25.30;69.70;25.00;99144.00;;;;342260;28;82341;-95
2021/06/18 00:41:22;;;;;;;3.22;2.55;;;25.30;69.60;24.90;99142.00;;;;342788;28;88697;-94
2021/06/18 00:41:34;;;;;;;3.30;2.65;;;25.30;69.60;24.90;99136.00;;;;341648;28;82722;-93
2021/06/18 00:41:47;;;;;;;4.38;2.70;;;25.30;69.60;25.00;99143.00;;;;341717;28;91184;-93
2021/06/18 00:41:59;;;;;;;4.32;2.63;;;25.30;69.50;25.00;99137.00;;;;341759;28;83456;-93
2021/06/18 00:42:11;;;;;;;4.60;2.53;;;25.30;69.60;25.00;99147.00;;;;337470;28;89812;-95
2021/06/18 00:42:23;;;;;;;4.20;2.20;;;25.20;69.60;25.00;99142.00;;;;341692;28;84575;-95
2021/06/18 00:42:35;;;;;;;4.10;2.10;;;25.30;69.70;25.00;99145.00;;;;340050;28;91213;-94
2021/06/18 00:42:47;;;;;;;3.25;2.08;;;25.30;69.70;25.10;99146.00;;;;341650;28;82384;-90
2021/06/18 00:42:58;;;;;;;2.78;2.08;;;25.30;69.80;25.10;99139.00;;;;338571;28;91581;-94
2021/06/18 00:43:10;;;;;;;2.95;2.22;;;25.30;69.80;25.10;99146.00;;;;341715;28;82983;-96
2021/06/18 00:43:22;;;;;;;3.03;2.35;;;25.30;69.80;25.10;99148.00;;;;338620;28;91364;-95
2021/06/18 00:43:34;;;;;;;3.20;2.40;;;25.30;69.60;25.00;99147.00;;;;341781;28;83630;-96
2021/06/18 00:43:46;;;;;;;2.80;2.33;;;25.30;69.60;25.10;99150.00;;;;337910;28;92327;-96
2021/06/18 00:43:58;;;;;;;3.92;2.50;;;25.30;69.60;25.20;99147.00;;;;340378;28;83414;-95
2021/06/18 00:44:09;;;;;;;4.20;2.38;;;25.30;69.80;25.10;99147.00;;;;340096;28;88033;-95
2021/06/18 00:44:21;;;;;;;5.45;2.50;;;25.40;69.80;25.00;99143.00;;;;340427;28;82540;-94
2021/06/18 00:44:33;;;;;;;5.68;2.45;;;25.40;69.50;25.00;99143.00;;;;338802;28;91052;-95
2021/06/18 00:44:45;;;;;;;5.85;2.55;;;25.40;69.40;25.10;99147.00;;;;343165;28;82176;-95
2021/06/18 00:44:57;;;;;;;3.83;2.50;;;25.40;69.40;25.10;99147.00;;;;341189;28;91048;-95
2021/06/18 00:45:09;;;;;;;4.00;2.45;;;25.40;69.40;25.10;99145.00;;;;337935;28;82400;-94
2021/06/18 00:45:21;;;;;;;3.63;2.40;;;25.30;69.30;25.10;99150.00;;;;339864;28;88338;-91
2021/06/18 00:45:33;;;;;;;3.03;2.53;;;25.40;69.50;25.10;99142.00;;;;337684;28;84112;-95
2021/06/18 00:45:45;;;;;;;3.22;2.67;;;25.40;69.50;25.10;99155.00;;;;342698;28;92137;-96
2021/06/18 00:45:56;;;;;;;4.10;2.72;;;25.40;69.40;25.10;99152.00;;;;339066;28;83765;-96
2021/06/18 00:46:09;;;;;;;4.03;2.67;;;25.40;69.30;25.20;99147.00;;;;341438;28;91194;-95
2021/06/18 00:46:21;;;;;;;3.40;2.50;;;25.40;69.50;25.30;99147.00;;;;343011;28;83540;-95
2021/06/18 00:46:33;;;;;;;2.72;2.20;;;25.40;69.50;25.40;99147.00;;;;340193;28;91942;-96
2021/06/18 00:46:47;;;;;;;4.07;2.50;;;25.40;69.40;25.50;99150.00;;;;341415;28;82498;-94
2021/06/18 00:46:59;;;;;;;4.43;2.53;;;25.40;69.30;25.30;99145.00;;;;344006;28;88559;-94
2021/06/18 00:47:15;;;;;;;4.95;2.50;;;25.50;69.30;25.30;99148.00;;;;340453;28;82364;-95
2021/06/18 00:47:27;;;;;;;4.88;2.47;;;25.50;69.30;25.40;99147.00;;;;344173;28;89541;-94
2021/06/18 00:47:49;;;;;;;4.78;2.53;;;25.50;69.40;25.40;99147.00;;;;341492;28;83495;-96
2021/06/18 00:48:01;;;;;;;4.93;2.50;;;25.50;69.30;25.40;99152.00;;;;339944;28;92062;-95
2021/06/18 00:48:13;;;;;;;2.95;2.25;;;25.50;69.10;25.50;99151.00;;;;340473;28;82760;-96
2021/06/18 00:48:25;;;;;;;2.88;2.58;;;25.50;69.10;25.40;99156.00;;;;339980;28;90895;-95
2021/06/18 00:48:37;;;;;;;2.65;2.45;;;25.50;69.00;25.40;99156.00;;;;337961;28;82340;-96
2021/06/18 00:48:49;;;;;;;4.47;2.38;;;25.50;69.10;25.40;99148.00;;;;341494;28;91658;-95
2021/06/18 00:49:01;;;;;;;6.15;2.50;;;25.50;69.10;25.50;99157.00;;;;337819;28;83415;-95
2021/06/18 00:49:14;;;;;;;5.82;2.22;;;25.50;69.10;25.40;99155.00;;;;341412;28;92639;-95
2021/06/18 00:49:26;;;;;;;3.90;2.10;;;25.50;69.00;25.40;99159.00;;;;339050;28;83630;-95
2021/06/18 00:49:38;;;;;;;2.40;2.05;;;25.60;69.10;25.50;99158.00;;;;341156;28;90576;-96
2021/06/18 00:49:50;;;;;;;3.00;2.22;;;25.60;69.10;25.50;99147.00;;;;339698;28;84225;-94
2021/06/18 00:50:02;;;;;;;3.33;2.15;;;25.60;69.10;25.50;99153.00;;;;342497;28;91757;-95
2021/06/18 00:50:14;;;;;;;4.43;2.35;;;25.60;69.00;25.40;99153.00;;;;340680;28;83427;-95
2021/06/18 00:50:28;;;;;;;5.05;2.25;;;25.60;68.80;25.40;99149.00;;;;342702;28;88008;-96
2021/06/18 00:50:40;;;;;;;5.20;2.38;;;25.60;68.70;25.50;99155.00;;;;340372;28;82270;-92
2021/06/18 00:50:53;;;;;;;4.25;2.50;;;25.60;68.90;25.40;99153.00;;;;342694;28;91242;-94
2021/06/18 00:51:05;;;;;;;4.35;2.30;;;25.60;68.70;25.40;99149.00;;;;341762;28;82524;-96
2021/06/18 00:51:18;;;;;;;3.22;2.35;;;25.60;68.80;25.30;99147.00;;;;342919;28;87858;-94
2021/06/18 00:51:30;;;;;;;3.78;2.60;;;25.60;68.70;25.30;99149.00;;;;341780;28;82862;-94
2021/06/18 00:51:42;;;;;;;3.88;2.53;;;25.60;68.70;25.20;99154.00;;;;342742;28;92790;-94
2021/06/18 00:51:55;;;;;;;3.90;2.30;;;25.60;68.80;25.10;99147.00;;;;343282;28;83345;-95
2021/06/18 00:52:07;;;;;;;3.85;2.53;;;25.60;68.70;25.20;99154.00;;;;342791;28;90013;-95
2021/06/18 00:52:20;;;;;;;4.57;2.88;;;25.50;68.70;25.30;99147.00;;;;341769;28;82538;-95
2021/06/18 00:52:32;;;;;;;5.90;2.90;;;25.60;68.90;25.30;99146.00;;;;342823;28;89344;-95
2021/06/18 00:52:43;;;;;;;5.22;2.70;;;25.60;68.80;25.30;99150.00;;;;341890;28;82608;-95
2021/06/18 00:52:55;;;;;;;4.45;2.30;;;25.60;68.70;25.40;99143.00;;;;341400;28;90215;-94
2021/06/18 00:53:07;;;;;;;3.22;2.13;;;25.60;68.80;25.40;99148.00;;;;337766;28;82462;-93
2021/06/18 00:53:19;;;;;;;3.85;2.17;;;25.60;68.90;25.30;99147.00;;;;341521;28;88364;-96
2021/06/18 00:53:31;;;;;;;3.92;2.65;;;25.60;68.70;25.30;99145.00;;;;341689;28;84740;-95
2021/06/18 00:53:43;;;;;;;5.18;2.72;;;25.60;68.70;25.40;99144.00;;;;341655;28;92332;-93
2021/06/18 00:53:55;;;;;;;6.13;2.88;;;25.60;68.90;25.30;99149.00;;;;339003;28;82628;-94
2021/06/18 00:54:07;;;;;;;5.22;2.53;;;25.60;68.60;25.30;99148.00;;;;342732;28;90878;-95
2021/06/18 00:54:28;;;;;;;2.83;2.40;;;25.60;68.70;25.20;99148.00;;;;341644;28;85176;-94
2021/06/18 00:54:41;;;;;;;4.38;2.50;;;25.50;68.50;25.20;99147.00;;;;341508;28;89225;-95
2021/06/18 00:54:52;;;;;;;4.50;2.42;;;25.50;68.80;25.10;99144.00;;;;340379;28;82750;-96
2021/06/18 00:55:05;;;;;;;3.50;2.35;;;25.50;68.80;25.20;99138.00;;;;342762;28;90231;-95